createdAt,value
2018-02-12T00:00:54.283Z,4.4
2018-02-12T00:01:56.701Z,4.4
2018-02-12T00:02:59.132Z,4.5
2018-02-12T00:04:01.850Z,4.5
2018-02-12T00:05:04.261Z,4.5
2018-02-12T00:06:06.694Z,4.5
2018-02-12T00:07:09.112Z,4.6
2018-02-12T00:08:11.529Z,4.5
2018-02-12T00:09:13.953Z,4.5
2018-02-12T00:10:16.381Z,4.4
2018-02-12T00:11:18.793Z,4.4
2018-02-12T00:12:21.226Z,4.4
2018-02-12T00:13:23.642Z,4.4
2018-02-12T00:14:26.058Z,4.5
2018-02-12T00:15:28.478Z,4.4
2018-02-12T00:16:30.898Z,4.5
2018-02-12T00:17:33.315Z,4.4
2018-02-12T00:18:35.754Z,4.4
2018-02-12T00:19:38.164Z,4.4
2018-02-12T00:20:40.593Z,4.4
2018-02-12T00:21:43.021Z,4.5
2018-02-12T00:22:45.435Z,4.4
2018-02-12T00:23:47.857Z,4.6
2018-02-12T00:24:50.287Z,4.7
2018-02-12T00:25:52.695Z,4.4
2018-02-12T00:26:55.112Z,4.6
2018-02-12T00:27:57.542Z,4.4
2018-02-12T00:28:59.965Z,4.4
2018-02-12T00:30:02.372Z,4.5
2018-02-12T00:31:04.795Z,4.7
2018-02-12T00:32:07.228Z,4.5
2018-02-12T00:33:09.643Z,4.5
2018-02-12T00:34:12.344Z,4.5
2018-02-12T00:35:15.045Z,4.5
2018-02-12T00:36:17.460Z,4.4
2018-02-12T00:37:19.896Z,4.4
2018-02-12T00:38:22.586Z,4.4
2018-02-12T00:39:25.020Z,4.4
2018-02-12T00:40:27.712Z,4.4
2018-02-12T00:41:30.133Z,4.6
2018-02-12T00:42:32.566Z,4.5
2018-02-12T00:43:34.984Z,4.4
2018-02-12T00:44:37.397Z,4.4
2018-02-12T00:45:39.826Z,4.4
2018-02-12T00:46:42.245Z,4.4
2018-02-12T00:47:44.672Z,4.4
2018-02-12T00:48:47.095Z,4.4
2018-02-12T00:49:49.508Z,4.6
2018-02-12T00:50:51.936Z,4.4
2018-02-12T00:51:54.360Z,4.5
2018-02-12T00:52:56.773Z,4.4
2018-02-12T00:53:59.200Z,4.5
2018-02-12T00:55:01.607Z,4.3
2018-02-12T00:56:04.030Z,4.4
2018-02-12T00:57:06.453Z,4.4
2018-02-12T00:58:08.881Z,4.5
2018-02-12T00:59:11.306Z,4.5
2018-02-12T01:00:13.734Z,4.4
2018-02-12T01:01:16.147Z,4.4
2018-02-12T01:02:18.845Z,4.4
2018-02-12T01:03:21.266Z,4.4
2018-02-12T01:04:23.964Z,4.4
2018-02-12T01:05:26.379Z,4.4
2018-02-12T01:06:28.804Z,4.4
2018-02-12T01:07:31.222Z,4.4
2018-02-12T01:08:33.650Z,4.4
2018-02-12T01:09:36.071Z,4.6
2018-02-12T01:10:38.490Z,4.5
2018-02-12T01:11:40.912Z,4.4
2018-02-12T01:12:43.337Z,4.4
2018-02-12T01:13:45.760Z,4.3
2018-02-12T01:14:48.228Z,4.4
2018-02-12T01:15:50.590Z,4.4
2018-02-12T01:16:53.023Z,4.5
2018-02-12T01:17:55.445Z,4.4
2018-02-12T01:18:58.140Z,4.6
2018-02-12T01:20:00.561Z,4.4
2018-02-12T01:21:02.977Z,4.4
2018-02-12T01:22:05.680Z,4.4
2018-02-12T01:23:08.400Z,4.4
2018-02-12T01:24:10.812Z,4.5
2018-02-12T01:25:13.236Z,4.4
2018-02-12T01:26:15.948Z,4.4
2018-02-12T01:27:18.366Z,4.6
2018-02-12T01:28:20.786Z,4.3
2018-02-12T01:29:23.202Z,4.5
2018-02-12T01:30:25.901Z,4.6
2018-02-12T01:31:28.319Z,4.4
2018-02-12T01:32:30.749Z,4.4
2018-02-12T01:33:33.158Z,4.4
2018-02-12T01:34:35.578Z,4.4
2018-02-12T01:35:38.010Z,4.4
2018-02-12T01:36:40.428Z,4.4
2018-02-12T01:37:42.854Z,4.4
2018-02-12T01:38:45.563Z,4.4
2018-02-12T01:39:47.983Z,4.5
2018-02-12T01:40:50.413Z,4.4
2018-02-12T01:41:52.834Z,4.4
2018-02-12T01:42:55.257Z,4.5
2018-02-12T01:43:57.683Z,4.4
2018-02-12T01:45:00.098Z,4.4
2018-02-12T01:46:02.513Z,4.4
2018-02-12T01:47:04.936Z,4.4
2018-02-12T01:48:07.347Z,4.6
2018-02-12T01:49:09.768Z,4.5
2018-02-12T01:50:12.190Z,4.4
2018-02-12T01:51:14.601Z,4.5
2018-02-12T01:52:17.310Z,4.4
2018-02-12T01:53:19.745Z,4.4
2018-02-12T01:54:22.439Z,4.4
2018-02-12T01:55:24.858Z,4.5
2018-02-12T01:56:27.282Z,4.4
2018-02-12T01:57:29.701Z,4.4
2018-02-12T01:58:32.113Z,4.5
2018-02-12T01:59:34.531Z,4.5
2018-02-12T02:00:36.957Z,4.3
2018-02-12T02:01:39.659Z,4.4
2018-02-12T02:02:42.081Z,4.4
2018-02-12T02:03:44.809Z,4.4
2018-02-12T02:04:47.228Z,4.4
2018-02-12T02:05:49.645Z,4.4
2018-02-12T02:06:52.078Z,4.4
2018-02-12T02:07:54.494Z,4.5
2018-02-12T02:08:56.919Z,4.5
2018-02-12T02:09:59.335Z,4.4
2018-02-12T02:11:01.757Z,4.4
2018-02-12T02:12:04.182Z,4.4
2018-02-12T02:13:06.596Z,4.4
2018-02-12T02:14:09.017Z,4.4
2018-02-12T02:15:11.442Z,4.3
2018-02-12T02:16:13.853Z,4.5
2018-02-12T02:17:16.273Z,4.4
2018-02-12T02:18:18.699Z,4.5
2018-02-12T02:19:21.113Z,4.3
2018-02-12T02:20:23.530Z,4.5
2018-02-12T02:21:26.259Z,4.4
2018-02-12T02:22:28.683Z,4.4
2018-02-12T02:23:31.097Z,4.3
2018-02-12T02:24:33.818Z,4.4
2018-02-12T02:25:36.507Z,4.6
2018-02-12T02:26:38.928Z,4.9
2018-02-12T02:27:41.346Z,4.4
2018-02-12T02:28:44.042Z,4.4
2018-02-12T02:29:46.465Z,4.4
2018-02-12T02:30:48.874Z,4.4
2018-02-12T02:31:51.305Z,4.3
2018-02-12T02:32:54.003Z,4.4
2018-02-12T02:33:56.425Z,4.3
2018-02-12T02:34:58.852Z,4.4
2018-02-12T02:36:01.559Z,4.5
2018-02-12T02:37:03.977Z,4.5
2018-02-12T02:38:06.396Z,4.4
2018-02-12T02:39:08.812Z,4.5
2018-02-12T02:40:11.240Z,4.4
2018-02-12T02:41:13.648Z,4.4
2018-02-12T02:42:16.066Z,4.4
2018-02-12T02:43:18.501Z,4.3
2018-02-12T02:44:20.913Z,4.4
2018-02-12T02:45:23.617Z,4.4
2018-02-12T02:46:26.045Z,4.5
2018-02-12T02:47:28.752Z,4.4
2018-02-12T02:48:31.183Z,4.5
2018-02-12T02:49:33.608Z,4.5
2018-02-12T02:50:36.013Z,4.4
2018-02-12T02:51:38.445Z,4.4
2018-02-12T02:52:41.212Z,4.4
2018-02-12T02:53:43.633Z,4.4
2018-02-12T02:54:46.327Z,4.4
2018-02-12T02:55:48.761Z,4.5
2018-02-12T02:56:51.177Z,4.5
2018-02-12T02:57:53.877Z,4.4
2018-02-12T02:58:56.303Z,4.5
2018-02-12T02:59:58.725Z,4.5
2018-02-12T03:01:01.149Z,4.5
2018-02-12T03:02:03.583Z,4.4
2018-02-12T03:03:05.996Z,4.4
2018-02-12T03:04:08.418Z,4.4
2018-02-12T03:05:10.847Z,4.4
2018-02-12T03:06:13.264Z,4.5
2018-02-12T03:07:15.961Z,4.4
2018-02-12T03:08:18.372Z,4.5
2018-02-12T03:09:21.097Z,4.5
2018-02-12T03:10:23.520Z,4.7
2018-02-12T03:11:25.938Z,4.5
2018-02-12T03:12:28.358Z,4.4
2018-02-12T03:13:30.769Z,4.4
2018-02-12T03:14:33.199Z,4.4
2018-02-12T03:15:35.626Z,4.4
2018-02-12T03:16:38.043Z,4.5
2018-02-12T03:17:40.471Z,4.5
2018-02-12T03:18:42.894Z,4.4
2018-02-12T03:19:45.306Z,4.4
2018-02-12T03:20:47.730Z,4.4
2018-02-12T03:21:50.143Z,4.4
2018-02-12T03:22:52.556Z,4.4
2018-02-12T03:23:54.983Z,4.4
2018-02-12T03:24:57.400Z,4.5
2018-02-12T03:25:59.835Z,4.6
2018-02-12T03:27:02.258Z,4.9
2018-02-12T03:28:04.684Z,4.6
2018-02-12T03:29:07.119Z,4.4
2018-02-12T03:30:54.352Z,4.4
2018-02-12T03:31:56.737Z,4.4
2018-02-12T03:32:59.093Z,4.5
2018-02-12T03:34:01.750Z,4.5
2018-02-12T03:35:04.391Z,4.5
2018-02-12T03:36:06.755Z,4.5
2018-02-12T03:37:09.127Z,4.5
2018-02-12T03:38:11.495Z,4.4
2018-02-12T03:39:13.854Z,4.4
2018-02-12T03:40:16.232Z,4.5
2018-02-12T03:41:18.594Z,4.5
2018-02-12T03:42:20.964Z,4.5
2018-02-12T03:43:23.338Z,4.5
2018-02-12T03:44:25.989Z,4.4
2018-02-12T03:45:28.368Z,4.5
2018-02-12T03:46:30.738Z,4.5
2018-02-12T03:47:33.107Z,4.4
2018-02-12T03:48:35.760Z,4.4
2018-02-12T03:49:38.118Z,4.4
2018-02-12T03:50:40.484Z,4.5
2018-02-12T03:51:42.847Z,4.6
2018-02-12T03:52:45.212Z,4.5
2018-02-12T03:53:47.587Z,4.5
2018-02-12T03:54:49.951Z,4.5
2018-02-12T03:55:52.608Z,4.4
2018-02-12T03:56:54.980Z,4.5
2018-02-12T03:57:57.345Z,4.5
2018-02-12T03:58:59.718Z,4.5
2018-02-12T04:00:02.083Z,4.5
2018-02-12T04:01:04.455Z,4.4
2018-02-12T04:02:07.106Z,4.5
2018-02-12T04:03:09.475Z,4.4
2018-02-12T04:04:11.833Z,4.4
2018-02-12T04:05:14.488Z,4.4
2018-02-12T04:06:17.131Z,4.5
2018-02-12T04:07:19.500Z,4.6
2018-02-12T04:08:21.870Z,4.5
2018-02-12T04:09:24.238Z,4.4
2018-02-12T04:10:26.615Z,4.5
2018-02-12T04:11:28.985Z,4.5
2018-02-12T04:12:31.353Z,4.4
2018-02-12T04:13:33.729Z,4.4
2018-02-12T04:14:36.383Z,4.6
2018-02-12T04:15:38.746Z,4.6
2018-02-12T04:16:41.409Z,4.6
2018-02-12T04:17:43.781Z,4.6
2018-02-12T04:18:46.146Z,4.5
2018-02-12T04:19:48.518Z,4.5
2018-02-12T04:20:50.882Z,4.4
2018-02-12T04:21:53.240Z,4.5
2018-02-12T04:22:55.614Z,4.5
2018-02-12T04:23:57.989Z,4.5
2018-02-12T04:25:00.909Z,4.5
2018-02-12T04:26:03.270Z,4.6
2018-02-12T04:27:05.644Z,4.6
2018-02-12T04:28:08.013Z,4.4
2018-02-12T04:29:10.366Z,4.5
2018-02-12T04:30:12.741Z,4.4
2018-02-12T04:31:15.112Z,4.5
2018-02-12T04:32:17.476Z,4.4
2018-02-12T04:33:20.127Z,4.5
2018-02-12T04:34:22.496Z,4.5
2018-02-12T04:35:25.701Z,4.5
2018-02-12T04:36:28.359Z,4.6
2018-02-12T04:37:30.726Z,4.5
2018-02-12T04:38:33.096Z,4.5
2018-02-12T04:39:35.466Z,4.4
2018-02-12T04:40:37.824Z,4.5
2018-02-12T04:41:40.194Z,4.6
2018-02-12T04:42:42.566Z,4.5
2018-02-12T04:43:44.928Z,4.6
2018-02-12T04:44:47.298Z,4.5
2018-02-12T04:45:49.660Z,4.4
2018-02-12T04:46:52.061Z,4.4
2018-02-12T04:47:54.406Z,4.5
2018-02-12T04:48:57.052Z,4.4
2018-02-12T04:49:59.414Z,4.5
2018-02-12T04:51:01.781Z,4.6
2018-02-12T04:52:04.157Z,4.5
2018-02-12T04:53:06.804Z,4.5
2018-02-12T04:54:09.468Z,4.5
2018-02-12T04:55:11.844Z,4.6
2018-02-12T04:56:14.208Z,4.5
2018-02-12T04:57:16.576Z,4.5
2018-02-12T04:58:18.940Z,4.4
2018-02-12T04:59:21.587Z,4.5
2018-02-12T05:00:23.951Z,4.6
2018-02-12T05:01:26.319Z,4.5
2018-02-12T05:02:28.684Z,4.5
2018-02-12T05:03:31.056Z,4.6
2018-02-12T05:04:33.430Z,4.5
2018-02-12T05:05:36.086Z,4.5
2018-02-12T05:06:38.446Z,4.5
2018-02-12T05:07:40.813Z,4.6
2018-02-12T05:08:43.181Z,4.6
2018-02-12T05:09:45.549Z,4.5
2018-02-12T05:10:48.205Z,4.6
2018-02-12T05:11:50.566Z,4.5
2018-02-12T05:12:52.936Z,4.5
2018-02-12T05:13:55.303Z,4.5
2018-02-12T05:14:57.956Z,4.5
2018-02-12T05:16:00.316Z,4.5
2018-02-12T05:17:02.693Z,4.5
2018-02-12T05:18:05.056Z,4.6
2018-02-12T05:19:07.434Z,4.5
2018-02-12T05:20:09.801Z,4.5
2018-02-12T05:21:12.165Z,4.5
2018-02-12T05:22:14.533Z,4.5
2018-02-12T05:23:16.896Z,4.6
2018-02-12T05:24:19.261Z,4.5
2018-02-12T05:25:21.624Z,4.5
2018-02-12T05:26:23.990Z,4.5
2018-02-12T05:27:26.367Z,4.5
2018-02-12T05:28:28.729Z,4.5
2018-02-12T05:29:31.109Z,4.5
2018-02-12T05:30:33.472Z,4.5
2018-02-12T05:31:35.845Z,4.5
2018-02-12T05:32:38.516Z,4.5
2018-02-12T05:33:41.178Z,4.5
2018-02-12T05:34:43.539Z,4.4
2018-02-12T05:35:45.913Z,4.5
2018-02-12T05:36:48.268Z,4.5
2018-02-12T05:37:50.643Z,4.6
2018-02-12T05:38:53.013Z,4.6
2018-02-12T05:39:55.375Z,4.5
2018-02-12T05:40:57.749Z,4.5
2018-02-12T05:42:00.123Z,4.5
2018-02-12T05:43:02.486Z,4.5
2018-02-12T05:44:04.854Z,4.4
2018-02-12T05:45:07.222Z,4.5
2018-02-12T05:46:09.598Z,4.6
2018-02-12T05:47:11.965Z,4.5
2018-02-12T05:48:14.618Z,4.5
2018-02-12T05:49:16.989Z,4.5
2018-02-12T05:50:19.365Z,4.5
2018-02-12T05:51:21.735Z,4.5
2018-02-12T05:52:24.097Z,4.5
2018-02-12T05:53:26.453Z,4.5
2018-02-12T05:54:29.119Z,4.5
2018-02-12T05:55:31.484Z,4.5
2018-02-12T05:56:33.850Z,4.5
2018-02-12T05:57:36.500Z,4.5
2018-02-12T05:58:38.875Z,4.5
2018-02-12T05:59:41.804Z,4.4
2018-02-12T06:00:44.172Z,4.4
2018-02-12T06:01:46.531Z,4.5
2018-02-12T06:02:48.894Z,4.4
2018-02-12T06:03:51.275Z,4.5
2018-02-12T06:04:53.634Z,4.5
2018-02-12T06:05:56.002Z,4.5
2018-02-12T06:06:58.371Z,4.5
2018-02-12T06:08:00.737Z,4.4
2018-02-12T06:09:03.108Z,4.4
2018-02-12T06:10:05.751Z,4.4
2018-02-12T06:11:08.115Z,4.6
2018-02-12T06:12:10.478Z,4.5
2018-02-12T06:13:13.130Z,4.6
2018-02-12T06:14:15.492Z,4.5
2018-02-12T06:15:17.870Z,4.5
2018-02-12T06:16:20.238Z,4.5
2018-02-12T06:17:22.609Z,4.5
2018-02-12T06:18:24.989Z,4.5
2018-02-12T06:19:27.353Z,4.7
2018-02-12T06:20:29.720Z,4.5
2018-02-12T06:21:32.091Z,4.5
2018-02-12T06:22:34.460Z,4.6
2018-02-12T06:23:36.840Z,4.6
2018-02-12T06:24:39.207Z,4.5
2018-02-12T06:25:41.580Z,4.5
2018-02-12T06:26:43.960Z,4.4
2018-02-12T06:27:46.315Z,4.6
2018-02-12T06:28:48.689Z,4.7
2018-02-12T06:29:51.090Z,4.5
2018-02-12T06:30:53.438Z,4.5
2018-02-12T06:31:55.794Z,4.4
2018-02-12T06:32:58.160Z,4.4
2018-02-12T06:34:00.519Z,4.6
2018-02-12T06:35:02.903Z,4.6
2018-02-12T06:36:05.575Z,4.5
2018-02-12T06:37:07.935Z,4.5
2018-02-12T06:38:10.312Z,4.5
2018-02-12T06:39:12.681Z,4.5
2018-02-12T06:40:15.059Z,4.5
2018-02-12T06:41:17.427Z,4.5
2018-02-12T06:42:19.790Z,4.6
2018-02-12T06:43:22.166Z,4.6
2018-02-12T06:44:24.540Z,4.5
2018-02-12T06:45:27.195Z,4.5
2018-02-12T06:46:29.558Z,4.5
2018-02-12T06:47:31.929Z,4.5
2018-02-12T06:48:34.288Z,4.5
2018-02-12T06:49:36.667Z,4.6
2018-02-12T06:50:39.033Z,4.6
2018-02-12T06:51:41.394Z,4.7
2018-02-12T06:52:43.769Z,4.5
2018-02-12T06:53:46.140Z,4.5
2018-02-12T06:54:48.518Z,4.5
2018-02-12T06:55:50.893Z,4.5
2018-02-12T06:56:53.255Z,4.5
2018-02-12T06:57:55.630Z,4.6
2018-02-12T06:58:57.997Z,4.5
2018-02-12T07:00:00.368Z,4.6
2018-02-12T07:01:02.743Z,4.5
2018-02-12T07:02:05.670Z,4.5
2018-02-12T07:03:08.325Z,4.5
2018-02-12T07:04:10.695Z,4.5
2018-02-12T07:05:13.070Z,4.5
2018-02-12T07:06:15.440Z,4.6
2018-02-12T07:07:18.092Z,4.5
2018-02-12T07:08:20.742Z,4.5
2018-02-12T07:09:23.117Z,4.5
2018-02-12T07:10:25.486Z,4.6
2018-02-12T07:11:27.859Z,4.5
2018-02-12T07:12:30.228Z,4.5
2018-02-12T07:13:32.876Z,4.5
2018-02-12T07:14:35.256Z,4.7
2018-02-12T07:15:37.618Z,4.5
2018-02-12T07:16:39.980Z,4.6
2018-02-12T07:17:42.360Z,4.5
2018-02-12T07:18:45.005Z,4.6
2018-02-12T07:19:47.659Z,4.5
2018-02-12T07:20:50.032Z,4.6
2018-02-12T07:21:52.401Z,4.5
2018-02-12T07:22:55.050Z,4.5
2018-02-12T07:23:57.426Z,4.5
2018-02-12T07:24:59.784Z,4.6
2018-02-12T07:26:02.150Z,4.6
2018-02-12T07:27:04.522Z,4.5
2018-02-12T07:28:06.886Z,4.5
2018-02-12T07:29:09.246Z,4.5
2018-02-12T07:30:11.902Z,4.5
2018-02-12T07:31:14.266Z,4.6
2018-02-12T07:32:16.939Z,4.5
2018-02-12T07:33:19.310Z,4.5
2018-02-12T07:34:21.962Z,4.6
2018-02-12T07:35:24.328Z,4.5
2018-02-12T07:36:26.996Z,4.5
2018-02-12T07:37:29.364Z,4.6
2018-02-12T07:38:31.742Z,4.5
2018-02-12T07:39:34.099Z,4.5
2018-02-12T07:40:36.480Z,4.5
2018-02-12T07:41:39.125Z,4.6
2018-02-12T07:42:41.491Z,4.5
2018-02-12T07:43:43.860Z,4.5
2018-02-12T07:44:46.224Z,4.5
2018-02-12T07:45:48.583Z,4.5
2018-02-12T07:46:50.964Z,4.5
2018-02-12T07:47:53.320Z,4.5
2018-02-12T07:48:55.975Z,4.6
2018-02-12T07:49:58.343Z,4.6
2018-02-12T07:51:00.722Z,4.5
2018-02-12T07:52:03.097Z,4.7
2018-02-12T07:53:05.460Z,4.5
2018-02-12T07:54:07.836Z,4.5
2018-02-12T07:55:10.199Z,4.5
2018-02-12T07:56:12.570Z,4.6
2018-02-12T07:57:14.938Z,4.6
2018-02-12T07:58:17.309Z,4.5
2018-02-12T07:59:19.683Z,4.6
2018-02-12T08:00:22.061Z,4.5
2018-02-12T08:01:24.425Z,4.5
2018-02-12T08:02:27.084Z,4.5
2018-02-12T08:03:29.448Z,4.5
2018-02-12T08:04:32.101Z,4.5
2018-02-12T08:05:34.749Z,4.6
2018-02-12T08:06:37.120Z,4.7
2018-02-12T08:07:39.487Z,4.6
2018-02-12T08:08:41.861Z,4.7
2018-02-12T08:09:44.224Z,4.5
2018-02-12T08:10:46.599Z,4.5
2018-02-12T08:11:48.968Z,4.6
2018-02-12T08:12:51.341Z,4.5
2018-02-12T08:13:53.700Z,4.7
2018-02-12T08:14:56.363Z,4.5
2018-02-12T08:15:58.724Z,4.6
2018-02-12T08:17:01.100Z,4.5
2018-02-12T08:18:03.472Z,4.5
2018-02-12T08:19:05.842Z,4.5
2018-02-12T08:20:08.207Z,4.5
2018-02-12T08:21:10.583Z,4.5
2018-02-12T08:22:12.948Z,4.6
2018-02-12T08:23:15.315Z,4.6
2018-02-12T08:24:17.683Z,4.6
2018-02-12T08:25:20.055Z,4.5
2018-02-12T08:26:22.433Z,4.5
2018-02-12T08:27:24.805Z,4.5
2018-02-12T08:28:27.183Z,4.6
2018-02-12T08:29:29.554Z,4.6
2018-02-12T08:30:31.928Z,4.6
2018-02-12T08:31:34.314Z,4.5
2018-02-12T08:32:36.677Z,4.5
2018-02-12T08:33:39.037Z,4.5
2018-02-12T08:34:41.695Z,4.5
2018-02-12T08:35:44.068Z,4.6
2018-02-12T08:36:46.432Z,4.5
2018-02-12T08:37:48.816Z,4.6
2018-02-12T08:38:51.450Z,4.5
2018-02-12T08:39:53.829Z,4.7
2018-02-12T08:40:56.205Z,4.5
2018-02-12T08:41:58.569Z,4.5
2018-02-12T08:43:00.941Z,4.5
2018-02-12T08:44:03.594Z,4.6
2018-02-12T08:45:06.244Z,4.6
2018-02-12T08:46:08.629Z,4.6
2018-02-12T08:47:11.006Z,4.6
2018-02-12T08:48:13.367Z,4.5
2018-02-12T08:49:15.763Z,4.5
2018-02-12T08:50:18.113Z,4.5
2018-02-12T08:51:20.481Z,4.5
2018-02-12T08:52:22.841Z,4.5
2018-02-12T08:53:25.220Z,4.6
2018-02-12T08:54:27.586Z,4.5
2018-02-12T08:55:29.952Z,4.6
2018-02-12T08:56:32.328Z,4.6
2018-02-12T08:57:34.702Z,4.5
2018-02-12T08:58:37.071Z,4.5
2018-02-12T08:59:39.444Z,4.6
2018-02-12T09:00:41.813Z,4.6
2018-02-12T09:01:44.176Z,4.7
2018-02-12T09:02:46.546Z,4.6
2018-02-12T09:03:48.919Z,4.6
2018-02-12T09:04:51.276Z,4.6
2018-02-12T09:05:53.664Z,4.5
2018-02-12T09:06:56.037Z,4.6
2018-02-12T09:07:58.400Z,4.6
2018-02-12T09:09:00.771Z,4.6
2018-02-12T09:10:03.134Z,4.5
2018-02-12T09:11:05.503Z,4.6
2018-02-12T09:12:07.890Z,4.6
2018-02-12T09:13:10.249Z,4.5
2018-02-12T09:14:12.617Z,4.6
2018-02-12T09:15:15.001Z,4.6
2018-02-12T09:16:17.921Z,4.6
2018-02-12T09:17:20.297Z,4.6
2018-02-12T09:18:22.677Z,4.6
2018-02-12T09:19:25.045Z,4.5
2018-02-12T09:20:27.986Z,4.6
2018-02-12T09:21:30.350Z,4.6
2018-02-12T09:22:33.057Z,4.5
2018-02-12T09:23:35.384Z,4.6
2018-02-12T09:24:37.752Z,4.6
2018-02-12T09:25:40.116Z,4.6
2018-02-12T09:26:42.490Z,4.6
2018-02-12T09:27:44.848Z,4.7
2018-02-12T09:28:47.237Z,4.5
2018-02-12T09:29:49.611Z,4.5
2018-02-12T09:30:51.977Z,4.6
2018-02-12T09:31:54.354Z,4.6
2018-02-12T09:32:56.718Z,4.6
2018-02-12T09:33:59.088Z,4.6
2018-02-12T09:35:01.455Z,4.6
2018-02-12T09:36:03.827Z,4.6
2018-02-12T09:37:06.196Z,4.5
2018-02-12T09:38:08.578Z,4.6
2018-02-12T09:39:10.946Z,4.6
2018-02-12T09:40:13.303Z,4.6
2018-02-12T09:41:15.679Z,4.5
2018-02-12T09:42:18.325Z,4.6
2018-02-12T09:43:20.706Z,4.6
2018-02-12T09:44:23.357Z,4.6
2018-02-12T09:45:26.006Z,4.5
2018-02-12T09:46:28.660Z,4.6
2018-02-12T09:47:31.060Z,4.7
2018-02-12T09:48:33.405Z,4.7
2018-02-12T09:49:35.773Z,4.6
2018-02-12T09:50:38.141Z,4.7
2018-02-12T09:51:40.520Z,4.6
2018-02-12T09:52:42.879Z,4.6
2018-02-12T09:53:45.255Z,4.6
2018-02-12T09:54:47.628Z,4.7
2018-02-12T09:55:50.003Z,4.7
2018-02-12T09:56:52.373Z,4.6
2018-02-12T09:57:54.748Z,4.7
2018-02-12T09:58:57.111Z,4.6
2018-02-12T09:59:59.786Z,4.6
2018-02-12T10:01:02.161Z,4.6
2018-02-12T10:02:04.526Z,4.6
2018-02-12T10:03:07.178Z,4.6
2018-02-12T10:04:09.839Z,4.7
2018-02-12T10:05:12.206Z,4.7
2018-02-12T10:06:14.584Z,4.7
2018-02-12T10:07:16.956Z,4.6
2018-02-12T10:08:19.324Z,4.6
2018-02-12T10:09:21.694Z,4.6
2018-02-12T10:10:24.346Z,4.6
2018-02-12T10:11:26.983Z,4.6
2018-02-12T10:12:29.365Z,4.6
2018-02-12T10:13:31.721Z,4.7
2018-02-12T10:14:34.102Z,4.6
2018-02-12T10:15:36.480Z,4.6
2018-02-12T10:16:38.849Z,4.6
2018-02-12T10:17:41.222Z,4.6
2018-02-12T10:18:43.598Z,4.6
2018-02-12T10:19:45.968Z,4.7
2018-02-12T10:20:48.347Z,4.7
2018-02-12T10:21:50.710Z,4.7
2018-02-12T10:22:53.084Z,4.6
2018-02-12T10:23:55.812Z,4.5
2018-02-12T10:24:58.175Z,4.6
2018-02-12T10:26:00.556Z,4.6
2018-02-12T10:27:02.921Z,4.6
2018-02-12T10:28:05.296Z,4.6
2018-02-12T10:29:07.661Z,4.6
2018-02-12T10:30:10.031Z,4.6
2018-02-12T10:31:12.404Z,4.5
2018-02-12T10:32:15.100Z,4.5
2018-02-12T10:33:17.416Z,4.6
2018-02-12T10:34:19.792Z,4.5
2018-02-12T10:35:22.157Z,4.6
2018-02-12T10:36:24.526Z,4.6
2018-02-12T10:37:26.902Z,4.7
2018-02-12T10:38:29.272Z,4.5
2018-02-12T10:39:31.636Z,4.6
2018-02-12T10:40:34.008Z,4.5
2018-02-12T10:41:36.386Z,4.6
2018-02-12T10:42:38.758Z,4.6
2018-02-12T10:43:41.134Z,4.6
2018-02-12T10:44:43.504Z,4.6
2018-02-12T10:45:45.868Z,4.6
2018-02-12T10:46:48.249Z,4.5
2018-02-12T10:47:50.621Z,4.5
2018-02-12T10:48:52.985Z,4.6
2018-02-12T10:49:55.363Z,4.7
2018-02-12T10:50:57.732Z,4.6
2018-02-12T10:52:00.100Z,4.6
2018-02-12T10:53:02.473Z,4.6
2018-02-12T10:54:04.852Z,4.6
2018-02-12T10:55:07.230Z,4.6
2018-02-12T10:56:09.597Z,4.6
2018-02-12T10:57:11.961Z,4.6
2018-02-12T10:58:14.320Z,4.6
2018-02-12T10:59:16.704Z,4.7
2018-02-12T11:00:19.070Z,4.5
2018-02-12T11:01:21.431Z,4.6
2018-02-12T11:02:23.805Z,4.5
2018-02-12T11:03:26.174Z,4.6
2018-02-12T11:04:28.553Z,4.7
2018-02-12T11:05:30.915Z,4.6
2018-02-12T11:06:33.290Z,4.6
2018-02-12T11:07:35.931Z,4.6
2018-02-12T11:08:38.315Z,4.5
2018-02-12T11:09:40.687Z,4.5
2018-02-12T11:10:43.045Z,4.6
2018-02-12T11:11:45.420Z,4.7
2018-02-12T11:12:47.784Z,4.6
2018-02-12T11:13:50.159Z,4.7
2018-02-12T11:14:52.523Z,4.5
2018-02-12T11:15:55.173Z,4.6
2018-02-12T11:16:57.537Z,4.7
2018-02-12T11:17:59.920Z,4.5
2018-02-12T11:19:02.291Z,4.6
2018-02-12T11:20:04.664Z,4.6
2018-02-12T11:21:07.037Z,4.6
2018-02-12T11:22:09.416Z,4.6
2018-02-12T11:23:11.769Z,4.5
2018-02-12T11:24:14.146Z,4.6
2018-02-12T11:25:16.500Z,4.8
2018-02-12T11:26:18.879Z,4.7
2018-02-12T11:27:21.248Z,4.7
2018-02-12T11:28:23.619Z,4.7
2018-02-12T11:29:25.994Z,4.6
2018-02-12T11:30:28.363Z,4.6
2018-02-12T11:31:30.742Z,4.6
2018-02-12T11:32:33.122Z,4.6
2018-02-12T11:33:35.490Z,4.6
2018-02-12T11:34:37.898Z,4.7
2018-02-12T11:35:40.621Z,4.7
2018-02-12T11:36:42.987Z,4.6
2018-02-12T11:37:45.368Z,4.6
2018-02-12T11:38:47.746Z,4.6
2018-02-12T11:39:50.161Z,4.8
2018-02-12T11:40:52.491Z,4.8
2018-02-12T11:41:54.857Z,4.8
2018-02-12T11:42:57.228Z,4.7
2018-02-12T11:43:59.619Z,4.6
2018-02-12T11:45:01.980Z,4.7
2018-02-12T11:46:04.359Z,4.6
2018-02-12T11:47:06.734Z,4.7
2018-02-12T11:48:09.115Z,4.8
2018-02-12T11:49:11.478Z,4.7
2018-02-12T11:50:13.858Z,4.7
2018-02-12T11:51:16.241Z,4.7
2018-02-12T11:52:18.610Z,4.7
2018-02-12T11:53:20.982Z,4.9
2018-02-12T11:54:23.346Z,4.7
2018-02-12T11:55:25.712Z,4.8
2018-02-12T11:56:28.090Z,4.8
2018-02-12T11:57:30.456Z,4.7
2018-02-12T11:58:32.824Z,4.7
2018-02-12T11:59:35.205Z,4.7
2018-02-12T12:00:37.585Z,4.7
2018-02-12T12:01:39.964Z,4.7
2018-02-12T12:02:42.613Z,4.7
2018-02-12T12:03:44.987Z,4.9
2018-02-12T12:04:47.371Z,4.7
2018-02-12T12:05:49.746Z,4.7
2018-02-12T12:06:52.123Z,4.7
2018-02-12T12:07:54.492Z,4.7
2018-02-12T12:08:56.865Z,4.7
2018-02-12T12:09:59.238Z,4.7
2018-02-12T12:11:01.607Z,4.8
2018-02-12T12:12:03.974Z,4.7
2018-02-12T12:13:06.630Z,4.7
2018-02-12T12:14:08.999Z,4.7
2018-02-12T12:15:11.653Z,4.8
2018-02-12T12:16:14.026Z,4.9
2018-02-12T12:17:16.389Z,4.7
2018-02-12T12:18:18.768Z,4.9
2018-02-12T12:19:21.137Z,4.8
2018-02-12T12:20:23.509Z,4.7
2018-02-12T12:21:25.873Z,4.7
2018-02-12T12:22:28.535Z,4.9
2018-02-12T12:23:30.899Z,4.8
2018-02-12T12:24:33.262Z,4.8
2018-02-12T12:25:35.641Z,4.8
2018-02-12T12:26:38.014Z,4.8
2018-02-12T12:27:40.396Z,4.7
2018-02-12T12:28:42.782Z,4.7
2018-02-12T12:29:45.150Z,4.9
2018-02-12T12:30:47.842Z,4.8
2018-02-12T12:31:50.223Z,4.9
2018-02-12T12:32:52.595Z,4.9
2018-02-12T12:33:54.965Z,4.8
2018-02-12T12:34:57.345Z,4.8
2018-02-12T12:35:59.713Z,4.8
2018-02-12T12:37:02.090Z,4.8
2018-02-12T12:38:04.460Z,4.8
2018-02-12T12:39:06.835Z,4.8
2018-02-12T12:40:09.777Z,4.9
2018-02-12T12:41:12.151Z,4.8
2018-02-12T12:42:14.809Z,4.8
2018-02-12T12:43:17.195Z,4.8
2018-02-12T12:44:19.568Z,4.7
2018-02-12T12:45:21.955Z,4.8
2018-02-12T12:46:24.320Z,5
2018-02-12T12:47:26.705Z,4.8
2018-02-12T12:48:29.076Z,4.9
2018-02-12T12:49:31.732Z,4.8
2018-02-12T12:50:34.112Z,4.8
2018-02-12T12:51:36.485Z,4.8
2018-02-12T12:52:38.861Z,4.8
2018-02-12T12:53:41.239Z,4.8
2018-02-12T12:54:43.888Z,4.8
2018-02-12T12:55:46.268Z,5.2
2018-02-12T12:56:48.644Z,4.8
2018-02-12T12:57:51.300Z,4.8
2018-02-12T12:58:53.686Z,4.8
2018-02-12T12:59:56.415Z,4.8
2018-02-12T13:00:58.742Z,4.9
2018-02-12T13:02:01.116Z,4.8
2018-02-12T13:03:03.483Z,4.8
2018-02-12T13:04:05.865Z,4.8
2018-02-12T13:05:08.237Z,4.8
2018-02-12T13:06:10.606Z,4.8
2018-02-12T13:07:13.262Z,4.8
2018-02-12T13:08:15.646Z,4.7
2018-02-12T13:09:18.299Z,4.7
2018-02-12T13:10:20.673Z,4.8
2018-02-12T13:11:23.049Z,4.8
2018-02-12T13:12:25.717Z,4.8
2018-02-12T13:13:28.084Z,4.9
2018-02-12T13:14:30.751Z,4.7
2018-02-12T13:15:33.114Z,4.8
2018-02-12T13:16:35.475Z,4.8
2018-02-12T13:17:37.850Z,5.1
2018-02-12T13:18:40.219Z,4.8
2018-02-12T13:19:42.601Z,4.9
2018-02-12T13:20:45.022Z,4.9
2018-02-12T13:21:47.358Z,4.8
2018-02-12T13:22:49.734Z,4.8
2018-02-12T13:23:52.093Z,4.8
2018-02-12T13:24:54.479Z,4.8
2018-02-12T13:25:56.848Z,4.8
2018-02-12T13:26:59.223Z,4.8
2018-02-12T13:28:01.589Z,4.7
2018-02-12T13:29:03.969Z,4.9
2018-02-12T13:30:06.337Z,4.8
2018-02-12T13:31:08.723Z,4.8
2018-02-12T13:32:11.101Z,4.9
2018-02-12T13:33:13.476Z,4.7
2018-02-12T13:34:15.850Z,4.8
2018-02-12T13:35:18.494Z,4.8
2018-02-12T13:36:20.876Z,4.9
2018-02-12T13:37:23.248Z,4.8
2018-02-12T13:38:25.897Z,4.8
2018-02-12T13:39:28.283Z,4.9
2018-02-12T13:40:30.655Z,4.9
2018-02-12T13:41:33.324Z,4.8
2018-02-12T13:42:35.973Z,4.8
2018-02-12T13:43:38.352Z,4.8
2018-02-12T13:44:40.718Z,4.8
2018-02-12T13:45:43.382Z,4.9
2018-02-12T13:46:46.309Z,4.8
2018-02-12T13:47:48.676Z,4.9
2018-02-12T13:48:51.060Z,4.8
2018-02-12T13:49:53.479Z,4.9
2018-02-12T13:50:55.824Z,5
2018-02-12T13:51:58.196Z,4.8
2018-02-12T13:53:00.572Z,4.8
2018-02-12T13:54:02.947Z,4.8
2018-02-12T13:55:05.323Z,4.8
2018-02-12T13:56:08.251Z,4.9
2018-02-12T13:57:11.196Z,4.9
2018-02-12T13:58:13.566Z,4.9
2018-02-12T13:59:15.940Z,4.8
2018-02-12T14:00:18.317Z,4.8
2018-02-12T14:01:20.988Z,4.8
2018-02-12T14:02:23.349Z,4.8
2018-02-12T14:03:25.715Z,4.8
2018-02-12T14:04:28.089Z,4.9
2018-02-12T14:05:30.468Z,4.9
2018-02-12T14:06:32.840Z,4.8
2018-02-12T14:07:35.502Z,4.8
2018-02-12T14:08:37.875Z,4.8
2018-02-12T14:09:40.594Z,4.7
2018-02-12T14:10:42.922Z,4.8
2018-02-12T14:11:45.291Z,4.8
2018-02-12T14:12:47.941Z,4.9
2018-02-12T14:13:50.320Z,5
2018-02-12T14:14:52.694Z,4.9
2018-02-12T14:15:55.075Z,4.7
2018-02-12T14:16:57.727Z,4.8
2018-02-12T14:18:00.109Z,4.8
2018-02-12T14:19:02.766Z,4.8
2018-02-12T14:20:05.141Z,4.9
2018-02-12T14:21:07.514Z,4.9